WXM80 ListenWXM80 Stop

You find our weather info also at:

UK Metoffice

WeatherCloud

Weather Underground

Northeastern Weather Network

AWEKAS

Citizen Weather Observer Program (CWOP)

HAMweather, WeatherForYou, PWS Weather


Weather Underground History page Text

Daily Summary for February 9, 2018 Units:  Both    English   Metric
« Previous Day
Next Day »
Daily Weekly Monthly Yearly Custom
  High: Low: Average:
Temperature: 36.0 °F /  2.2 °C 24.3 °F /  -4.3 °C 31.2 °F /  -0.4 °C
Dew Point: 31.8 °F /  -0.1 °C 15.8 °F /  -9 °C 21.6 °F /  -5.8 °C
Humidity: 85 % 48 % 68 %
Wind Speed: 7.3 mph /  11.7 km/h - 1.9 mph /  3.1 km/h
Wind Gust: 11.5 mph /  18.5 km/h - -
Wind:- - SW
Pressure: 30.33 in /  1027 hPa 30.16 in /  1021.2 hPa -
Precipitation: 0.00 in /  0 mm    
Historical Graphs
 
 
Tabular Data for February 9, 2018
Time Temperature Dew Point Pressure Wind Wind Speed Wind Gust Humidity Rainfall Rate (Hourly)
00:01 24.4 °F /  -4.2 °C 17.3 °F /  -8.2 °C 30.20 in /  1022.6 hPa West 0.7 mph /  1.1 km/h 3.0 mph /  4.8 km/h 74 % 0.00 in /  0 mm
00:06 24.3 °F /  -4.3 °C 17.2 °F /  -8.2 °C 30.20 in /  1022.6 hPa West 0.8 mph /  1.3 km/h 2.3 mph /  3.7 km/h 74 % 0.00 in /  0 mm
00:11 24.3 °F /  -4.3 °C 17.2 °F /  -8.2 °C 30.20 in /  1022.6 hPa West 1.8 mph /  2.9 km/h 3.0 mph /  4.8 km/h 74 % 0.00 in /  0 mm
00:17 24.3 °F /  -4.3 °C 17.5 °F /  -8.1 °C 30.20 in /  1022.6 hPa WSW 1.5 mph /  2.4 km/h 3.5 mph /  5.6 km/h 75 % 0.00 in /  0 mm
00:22 24.5 °F /  -4.2 °C 17.4 °F /  -8.1 °C 30.21 in /  1022.9 hPa West 2.8 mph /  4.5 km/h 11.5 mph /  18.5 km/h 74 % 0.00 in /  0 mm
00:27 24.9 °F /  -3.9 °C 17.5 °F /  -8.1 °C 30.21 in /  1022.9 hPa WSW 3.6 mph /  5.8 km/h 8.1 mph /  13 km/h 73 % 0.00 in /  0 mm
00:32 25.3 °F /  -3.7 °C 17.5 °F /  -8.1 °C 30.21 in /  1022.9 hPa West 1.9 mph /  3.1 km/h 6.9 mph /  11.1 km/h 72 % 0.00 in /  0 mm
00:37 25.7 °F /  -3.5 °C 17.6 °F /  -8 °C 30.20 in /  1022.6 hPa WNW 3.3 mph /  5.3 km/h 10.4 mph /  16.7 km/h 71 % 0.00 in /  0 mm
00:42 26.0 °F /  -3.3 °C 17.9 °F /  -7.8 °C 30.21 in /  1022.9 hPa West 3.1 mph /  5 km/h 9.2 mph /  14.8 km/h 71 % 0.00 in /  0 mm
00:47 26.3 °F /  -3.2 °C 17.8 °F /  -7.9 °C 30.21 in /  1022.9 hPa West 4.3 mph /  6.9 km/h 5.8 mph /  9.3 km/h 70 % 0.00 in /  0 mm
00:52 26.6 °F /  -3 °C 17.8 °F /  -7.9 °C 30.21 in /  1022.9 hPa West 3.6 mph /  5.8 km/h 5.8 mph /  9.3 km/h 69 % 0.00 in /  0 mm
00:57 26.8 °F /  -2.9 °C 18.0 °F /  -7.8 °C 30.21 in /  1022.9 hPa West 4.4 mph /  7.1 km/h 9.2 mph /  14.8 km/h 69 % 0.00 in /  0 mm
01:02 26.9 °F /  -2.8 °C 18.1 °F /  -7.7 °C 30.21 in /  1022.9 hPa West 2.9 mph /  4.7 km/h 6.9 mph /  11.1 km/h 69 % 0.00 in /  0 mm
01:07 27.0 °F /  -2.8 °C 17.8 °F /  -7.9 °C 30.22 in /  1023.2 hPa WNW 2.1 mph /  3.4 km/h 7.0 mph /  11.3 km/h 68 % 0.00 in /  0 mm
01:12 27.1 °F /  -2.7 °C 17.9 °F /  -7.8 °C 30.22 in /  1023.2 hPa WNW 5.3 mph /  8.5 km/h 8.1 mph /  13 km/h 68 % 0.00 in /  0 mm
01:17 27.2 °F /  -2.7 °C 18.0 °F /  -7.8 °C 30.22 in /  1023.2 hPa West 3.0 mph /  4.8 km/h 5.8 mph /  9.3 km/h 68 % 0.00 in /  0 mm
01:22 27.2 °F /  -2.7 °C 17.7 °F /  -7.9 °C 30.22 in /  1023.2 hPa WNW 3.4 mph /  5.5 km/h 6.9 mph /  11.1 km/h 67 % 0.00 in /  0 mm
01:27 27.3 °F /  -2.6 °C 17.8 °F /  -7.9 °C 30.22 in /  1023.2 hPa West 6.2 mph /  10 km/h 6.2 mph /  10 km/h 67 % 0.00 in /  0 mm
01:32 27.3 °F /  -2.6 °C 17.8 °F /  -7.9 °C 30.23 in /  1023.6 hPa West 3.1 mph /  5 km/h 5.8 mph /  9.3 km/h 67 % 0.00 in /  0 mm
01:37 27.4 °F /  -2.6 °C 17.9 °F /  -7.8 °C 30.23 in /  1023.6 hPa WSW 1.4 mph /  2.3 km/h 9.2 mph /  14.8 km/h 67 % 0.00 in /  0 mm
01:43 27.3 °F /  -2.6 °C 17.8 °F /  -7.9 °C 30.23 in /  1023.6 hPa WNW 3.4 mph /  5.5 km/h 4.0 mph /  6.4 km/h 67 % 0.00 in /  0 mm
01:48 27.3 °F /  -2.6 °C 17.8 °F /  -7.9 °C 30.24 in /  1023.9 hPa WSW 2.4 mph /  3.9 km/h 8.1 mph /  13 km/h 67 % 0.00 in /  0 mm
01:53 27.3 °F /  -2.6 °C 17.8 °F /  -7.9 °C 30.23 in /  1023.6 hPa WSW 1.2 mph /  1.9 km/h 3.5 mph /  5.6 km/h 67 % 0.00 in /  0 mm
01:58 27.3 °F /  -2.6 °C 17.8 °F /  -7.9 °C 30.24 in /  1023.9 hPa WSW 4.8 mph /  7.7 km/h 8.1 mph /  13 km/h 67 % 0.00 in /  0 mm
02:03 27.3 °F /  -2.6 °C 17.8 °F /  -7.9 °C 30.24 in /  1023.9 hPa West 2.3 mph /  3.7 km/h 4.6 mph /  7.4 km/h 67 % 0.00 in /  0 mm
02:08 27.2 °F /  -2.7 °C 17.7 °F /  -7.9 °C 30.25 in /  1024.3 hPa West 1.7 mph /  2.7 km/h 3.5 mph /  5.6 km/h 67 % 0.00 in /  0 mm
02:13 27.2 °F /  -2.7 °C 17.7 °F /  -7.9 °C 30.25 in /  1024.3 hPa West 5.2 mph /  8.4 km/h 10.4 mph /  16.7 km/h 67 % 0.00 in /  0 mm
02:18 27.2 °F /  -2.7 °C 17.7 °F /  -7.9 °C 30.25 in /  1024.3 hPa West 4.8 mph /  7.7 km/h 9.2 mph /  14.8 km/h 67 % 0.00 in /  0 mm
02:19 27.2 °F /  -2.7 °C 17.7 °F /  -7.9 °C 30.25 in /  1024.3 hPa NW 4.3 mph /  6.9 km/h 9.2 mph /  14.8 km/h 67 % 0.00 in /  0 mm
02:24 27.2 °F /  -2.7 °C 17.7 °F /  -7.9 °C 30.25 in /  1024.3 hPa NNW 2.9 mph /  4.7 km/h 5.8 mph /  9.3 km/h 67 % 0.00 in /  0 mm
02:29 27.2 °F /  -2.7 °C 17.3 °F /  -8.2 °C 30.25 in /  1024.3 hPa West 4.4 mph /  7.1 km/h 6.9 mph /  11.1 km/h 66 % 0.00 in /  0 mm
02:34 27.2 °F /  -2.7 °C 17.3 °F /  -8.2 °C 30.25 in /  1024.3 hPa WNW 3.6 mph /  5.8 km/h 9.2 mph /  14.8 km/h 66 % 0.00 in /  0 mm
02:39 27.2 °F /  -2.7 °C 17.3 °F /  -8.2 °C 30.26 in /  1024.6 hPa West 2.9 mph /  4.7 km/h 5.8 mph /  9.3 km/h 66 % 0.00 in /  0 mm
02:44 27.2 °F /  -2.7 °C 17.3 °F /  -8.2 °C 30.26 in /  1024.6 hPa West 4.4 mph /  7.1 km/h 6.9 mph /  11.1 km/h 66 % 0.00 in /  0 mm
02:49 27.3 °F /  -2.6 °C 17.4 °F /  -8.1 °C 30.26 in /  1024.6 hPa NW 5.0 mph /  8 km/h 9.2 mph /  14.8 km/h 66 % 0.00 in /  0 mm
02:54 27.3 °F /  -2.6 °C 17.4 °F /  -8.1 °C 30.26 in /  1024.6 hPa WNW 3.0 mph /  4.8 km/h 10.4 mph /  16.7 km/h 66 % 0.00 in /  0 mm
02:59 27.3 °F /  -2.6 °C 17.1 °F /  -8.3 °C 30.26 in /  1024.6 hPa West 1.5 mph /  2.4 km/h 3.5 mph /  5.6 km/h 65 % 0.00 in /  0 mm
03:04 27.3 °F /  -2.6 °C 17.4 °F /  -8.1 °C 30.26 in /  1024.6 hPa SW 3.5 mph /  5.6 km/h 5.0 mph /  8 km/h 66 % 0.00 in /  0 mm
03:10 27.3 °F /  -2.6 °C 17.4 °F /  -8.1 °C 30.26 in /  1024.6 hPa SW 6.7 mph /  10.8 km/h 11.5 mph /  18.5 km/h 66 % 0.00 in /  0 mm
03:15 27.4 °F /  -2.6 °C 17.2 °F /  -8.2 °C 30.26 in /  1024.6 hPa WNW 3.7 mph /  6 km/h 9.2 mph /  14.8 km/h 65 % 0.00 in /  0 mm
03:20 27.4 °F /  -2.6 °C 17.2 °F /  -8.2 °C 30.26 in /  1024.6 hPa WSW 4.1 mph /  6.6 km/h 6.9 mph /  11.1 km/h 65 % 0.00 in /  0 mm
03:25 27.4 °F /  -2.6 °C 17.2 °F /  -8.2 °C 30.26 in /  1024.6 hPa West 5.1 mph /  8.2 km/h 7.0 mph /  11.3 km/h 65 % 0.00 in /  0 mm
03:30 27.5 °F /  -2.5 °C 17.3 °F /  -8.2 °C 30.27 in /  1024.9 hPa WSW 4.4 mph /  7.1 km/h 5.8 mph /  9.3 km/h 65 % 0.00 in /  0 mm
03:35 27.4 °F /  -2.6 °C 17.5 °F /  -8.1 °C 30.27 in /  1024.9 hPa WNW 5.6 mph /  9 km/h 10.4 mph /  16.7 km/h 66 % 0.00 in /  0 mm
03:40 27.4 °F /  -2.6 °C 17.5 °F /  -8.1 °C 30.27 in /  1024.9 hPa West 3.3 mph /  5.3 km/h 6.9 mph /  11.1 km/h 66 % 0.00 in /  0 mm
03:45 27.4 °F /  -2.6 °C 17.5 °F /  -8.1 °C 30.27 in /  1024.9 hPa WNW 2.4 mph /  3.9 km/h 4.6 mph /  7.4 km/h 66 % 0.00 in /  0 mm
03:50 27.3 °F /  -2.6 °C 17.8 °F /  -7.9 °C 30.26 in /  1024.6 hPa WNW 4.2 mph /  6.8 km/h 9.2 mph /  14.8 km/h 67 % 0.00 in /  0 mm
03:55 27.3 °F /  -2.6 °C 17.4 °F /  -8.1 °C 30.26 in /  1024.6 hPa WNW 1.3 mph /  2.1 km/h 4.0 mph /  6.4 km/h 66 % 0.00 in /  0 mm
04:00 27.2 °F /  -2.7 °C 17.3 °F /  -8.2 °C 30.26 in /  1024.6 hPa West 1.2 mph /  1.9 km/h 2.3 mph /  3.7 km/h 66 % 0.00 in /  0 mm
04:05 27.1 °F /  -2.7 °C 17.6 °F /  -8 °C 30.26 in /  1024.6 hPa WNW 1.9 mph /  3.1 km/h 3.5 mph /  5.6 km/h 67 % 0.00 in /  0 mm
04:10 27.1 °F /  -2.7 °C 17.9 °F /  -7.8 °C 30.26 in /  1024.6 hPa WSW 0.3 mph /  0.5 km/h 2.0 mph /  3.2 km/h 68 % 0.00 in /  0 mm
04:16 27.0 °F /  -2.8 °C 17.8 °F /  -7.9 °C 30.26 in /  1024.6 hPa West 1.0 mph /  1.6 km/h 3.0 mph /  4.8 km/h 68 % 0.00 in /  0 mm
04:21 27.0 °F /  -2.8 °C 17.8 °F /  -7.9 °C 30.26 in /  1024.6 hPa West 1.0 mph /  1.6 km/h 6.0 mph /  9.7 km/h 68 % 0.00 in /  0 mm
04:26 26.9 °F /  -2.8 °C 18.1 °F /  -7.7 °C 30.26 in /  1024.6 hPa WNW 2.0 mph /  3.2 km/h 5.0 mph /  8 km/h 69 % 0.00 in /  0 mm
04:31 26.8 °F /  -2.9 °C 18.3 °F /  -7.6 °C 30.27 in /  1024.9 hPa West 1.8 mph /  2.9 km/h 4.6 mph /  7.4 km/h 70 % 0.00 in /  0 mm
04:36 26.7 °F /  -2.9 °C 18.2 °F /  -7.7 °C 30.27 in /  1024.9 hPa WSW 0.5 mph /  0.8 km/h 3.5 mph /  5.6 km/h 70 % 0.00 in /  0 mm
04:41 26.7 °F /  -2.9 °C 18.2 °F /  -7.7 °C 30.27 in /  1024.9 hPa West 0.3 mph /  0.5 km/h 3.5 mph /  5.6 km/h 70 % 0.00 in /  0 mm
04:46 26.6 °F /  -3 °C 18.1 °F /  -7.7 °C 30.27 in /  1024.9 hPa West 1.5 mph /  2.4 km/h 3.5 mph /  5.6 km/h 70 % 0.00 in /  0 mm
04:51 26.6 °F /  -3 °C 18.1 °F /  -7.7 °C 30.27 in /  1024.9 hPa NW 3.5 mph /  5.6 km/h 5.8 mph /  9.3 km/h 70 % 0.00 in /  0 mm
04:56 26.5 °F /  -3.1 °C 18.4 °F /  -7.6 °C 30.27 in /  1024.9 hPa WNW 1.6 mph /  2.6 km/h 3.5 mph /  5.6 km/h 71 % 0.00 in /  0 mm
05:01 26.4 °F /  -3.1 °C 18.3 °F /  -7.6 °C 30.26 in /  1024.6 hPa Calm   2.3 mph /  3.7 km/h 71 % 0.00 in /  0 mm
05:06 26.4 °F /  -3.1 °C 18.3 °F /  -7.6 °C 30.27 in /  1024.9 hPa WNW 0.6 mph /  1 km/h 3.5 mph /  5.6 km/h 71 % 0.00 in /  0 mm
05:11 26.3 °F /  -3.2 °C 18.2 °F /  -7.7 °C 30.26 in /  1024.6 hPa WNW 0.1 mph /  0.2 km/h 2.3 mph /  3.7 km/h 71 % 0.00 in /  0 mm
05:16 26.3 °F /  -3.2 °C 18.2 °F /  -7.7 °C 30.26 in /  1024.6 hPa Calm   3.5 mph /  5.6 km/h 71 % 0.00 in /  0 mm
05:21 26.2 °F /  -3.2 °C 18.1 °F /  -7.7 °C 30.26 in /  1024.6 hPa NW 0.2 mph /  0.3 km/h 1.2 mph /  1.9 km/h 71 % 0.00 in /  0 mm
05:26 26.2 °F /  -3.2 °C 18.1 °F /  -7.7 °C 30.26 in /  1024.6 hPa WNW 3.4 mph /  5.5 km/h 4.6 mph /  7.4 km/h 71 % 0.00 in /  0 mm
05:31 26.1 °F /  -3.3 °C 18.0 °F /  -7.8 °C 30.25 in /  1024.3 hPa WNW 2.0 mph /  3.2 km/h 5.8 mph /  9.3 km/h 71 % 0.00 in /  0 mm
05:36 26.1 °F /  -3.3 °C 17.6 °F /  -8 °C 30.26 in /  1024.6 hPa NW 3.8 mph /  6.1 km/h 3.8 mph /  6.1 km/h 70 % 0.00 in /  0 mm
05:41 26.1 °F /  -3.3 °C 18.0 °F /  -7.8 °C 30.25 in /  1024.3 hPa NW 0.9 mph /  1.4 km/h 2.0 mph /  3.2 km/h 71 % 0.00 in /  0 mm
05:46 26.1 °F /  -3.3 °C 18.0 °F /  -7.8 °C 30.26 in /  1024.6 hPa NNW 0.8 mph /  1.3 km/h 3.5 mph /  5.6 km/h 71 % 0.00 in /  0 mm
05:51 26.1 °F /  -3.3 °C 18.0 °F /  -7.8 °C 30.27 in /  1024.9 hPa NW 1.7 mph /  2.7 km/h 4.6 mph /  7.4 km/h 71 % 0.00 in /  0 mm
05:57 26.1 °F /  -3.3 °C 18.0 °F /  -7.8 °C 30.27 in /  1024.9 hPa WNW 2.2 mph /  3.5 km/h 3.5 mph /  5.6 km/h 71 % 0.00 in /  0 mm
06:02 26.1 °F /  -3.3 °C 17.6 °F /  -8 °C 30.26 in /  1024.6 hPa NNW 0.2 mph /  0.3 km/h 2.3 mph /  3.7 km/h 70 % 0.00 in /  0 mm
06:07 26.1 °F /  -3.3 °C 17.6 °F /  -8 °C 30.26 in /  1024.6 hPa WNW 2.9 mph /  4.7 km/h 3.5 mph /  5.6 km/h 70 % 0.00 in /  0 mm
06:12 26.0 °F /  -3.3 °C 17.9 °F /  -7.8 °C 30.25 in /  1024.3 hPa NNW 1.4 mph /  2.3 km/h 3.5 mph /  5.6 km/h 71 % 0.00 in /  0 mm
06:17 26.0 °F /  -3.3 °C 17.9 °F /  -7.8 °C 30.25 in /  1024.3 hPa Calm   1.2 mph /  1.9 km/h 71 % 0.00 in /  0 mm
06:22 25.9 °F /  -3.4 °C 17.8 °F /  -7.9 °C 30.26 in /  1024.6 hPa NW 1.1 mph /  1.8 km/h 3.5 mph /  5.6 km/h 71 % 0.00 in /  0 mm
06:27 25.9 °F /  -3.4 °C 17.5 °F /  -8.1 °C 30.26 in /  1024.6 hPa NW 0.6 mph /  1 km/h 2.3 mph /  3.7 km/h 70 % 0.00 in /  0 mm
06:32 25.8 °F /  -3.4 °C 17.4 °F /  -8.1 °C 30.27 in /  1024.9 hPa NW 0.9 mph /  1.4 km/h 3.5 mph /  5.6 km/h 70 % 0.00 in /  0 mm
06:37 25.8 °F /  -3.4 °C 17.4 °F /  -8.1 °C 30.27 in /  1024.9 hPa NW 0.7 mph /  1.1 km/h 3.5 mph /  5.6 km/h 70 % 0.00 in /  0 mm
06:42 25.8 °F /  -3.4 °C 17.4 °F /  -8.1 °C 30.27 in /  1024.9 hPa NW 0.8 mph /  1.3 km/h 2.3 mph /  3.7 km/h 70 % 0.00 in /  0 mm
06:47 25.7 °F /  -3.5 °C 17.3 °F /  -8.2 °C 30.28 in /  1025.3 hPa WNW 2.0 mph /  3.2 km/h 3.5 mph /  5.6 km/h 70 % 0.00 in /  0 mm
06:52 25.7 °F /  -3.5 °C 17.3 °F /  -8.2 °C 30.28 in /  1025.3 hPa WSW 1.9 mph /  3.1 km/h 3.5 mph /  5.6 km/h 70 % 0.00 in /  0 mm
06:57 25.6 °F /  -3.6 °C 17.2 °F /  -8.2 °C 30.28 in /  1025.3 hPa Calm   3.5 mph /  5.6 km/h 70 % 0.00 in /  0 mm
07:02 25.6 °F /  -3.6 °C 17.2 °F /  -8.2 °C 30.29 in /  1025.6 hPa Calm   1.2 mph /  1.9 km/h 70 % 0.00 in /  0 mm
07:07 25.6 °F /  -3.6 °C 17.5 °F /  -8.1 °C 30.30 in /  1026 hPa West 0.6 mph /  1 km/h 2.0 mph /  3.2 km/h 71 % 0.00 in /  0 mm
07:12 25.5 °F /  -3.6 °C 17.7 °F /  -7.9 °C 30.30 in /  1026 hPa Calm   2.3 mph /  3.7 km/h 72 % 0.00 in /  0 mm
07:17 25.4 °F /  -3.7 °C 17.6 °F /  -8 °C 30.30 in /  1026 hPa West 0.4 mph /  0.6 km/h 2.3 mph /  3.7 km/h 72 % 0.00 in /  0 mm
07:22 25.3 °F /  -3.7 °C 17.9 °F /  -7.8 °C 30.30 in /  1026 hPa Calm     73 % 0.00 in /  0 mm
07:28 25.3 °F /  -3.7 °C 17.9 °F /  -7.8 °C 30.31 in /  1026.3 hPa West 1.6 mph /  2.6 km/h 2.3 mph /  3.7 km/h 73 % 0.00 in /  0 mm
07:33 25.2 °F /  -3.8 °C 18.1 °F /  -7.7 °C 30.31 in /  1026.3 hPa Calm     74 % 0.00 in /  0 mm
07:38 25.2 °F /  -3.8 °C 18.1 °F /  -7.7 °C 30.31 in /  1026.3 hPa West 1.1 mph /  1.8 km/h 3.5 mph /  5.6 km/h 74 % 0.00 in /  0 mm
07:43 25.2 °F /  -3.8 °C 18.4 °F /  -7.6 °C 30.31 in /  1026.3 hPa West 0.7 mph /  1.1 km/h 2.3 mph /  3.7 km/h 75 % 0.00 in /  0 mm
07:48 25.2 °F /  -3.8 °C 18.4 °F /  -7.6 °C 30.31 in /  1026.3 hPa West 0.9 mph /  1.4 km/h 2.3 mph /  3.7 km/h 75 % 0.00 in /  0 mm
07:53 25.2 °F /  -3.8 °C 18.4 °F /  -7.6 °C 30.31 in /  1026.3 hPa West 0.3 mph /  0.5 km/h 1.2 mph /  1.9 km/h 75 % 0.00 in /  0 mm
08:03 25.4 °F /  -3.7 °C 18.6 °F /  -7.4 °C 30.32 in /  1026.6 hPa Calm     75 % 0.00 in /  0 mm
08:08 25.5 °F /  -3.6 °C 18.7 °F /  -7.4 °C 30.33 in /  1027 hPa West 0.7 mph /  1.1 km/h 2.3 mph /  3.7 km/h 75 % 0.00 in /  0 mm
08:13 25.7 °F /  -3.5 °C 18.9 °F /  -7.3 °C 30.33 in /  1027 hPa West 0.5 mph /  0.8 km/h 2.0 mph /  3.2 km/h 75 % 0.00 in /  0 mm
08:18 26.0 °F /  -3.3 °C 18.8 °F /  -7.3 °C 30.33 in /  1027 hPa WSW 0.7 mph /  1.1 km/h 3.5 mph /  5.6 km/h 74 % 0.00 in /  0 mm
08:23 26.2 °F /  -3.2 °C 18.7 °F /  -7.4 °C 30.33 in /  1027 hPa WSW 0.4 mph /  0.6 km/h 2.3 mph /  3.7 km/h 73 % 0.00 in /  0 mm
08:28 26.5 °F /  -3.1 °C 18.7 °F /  -7.4 °C 30.33 in /  1027 hPa Calm   1.2 mph /  1.9 km/h 72 % 0.00 in /  0 mm
08:33 26.9 °F /  -2.8 °C 19.1 °F /  -7.2 °C 30.33 in /  1027 hPa WSW 0.1 mph /  0.2 km/h 1.2 mph /  1.9 km/h 72 % 0.00 in /  0 mm
08:38 27.2 °F /  -2.7 °C 19.4 °F /  -7 °C 30.32 in /  1026.6 hPa Calm     72 % 0.00 in /  0 mm
08:43 27.6 °F /  -2.4 °C 19.4 °F /  -7 °C 30.32 in /  1026.6 hPa WSW 0.3 mph /  0.5 km/h 1.0 mph /  1.6 km/h 71 % 0.00 in /  0 mm
08:49 28.0 °F /  -2.2 °C 19.1 °F /  -7.2 °C 30.32 in /  1026.6 hPa WSW 0.3 mph /  0.5 km/h 1.2 mph /  1.9 km/h 69 % 0.00 in /  0 mm
08:54 28.5 °F /  -1.9 °C 18.9 °F /  -7.3 °C 30.32 in /  1026.6 hPa WSW 0.1 mph /  0.2 km/h 3.5 mph /  5.6 km/h 67 % 0.00 in /  0 mm
08:59 29.1 °F /  -1.6 °C 18.8 °F /  -7.3 °C 30.32 in /  1026.6 hPa Calm     65 % 0.00 in /  0 mm
09:04 29.7 °F /  -1.3 °C 19.4 °F /  -7 °C 30.32 in /  1026.6 hPa West 0.5 mph /  0.8 km/h 2.3 mph /  3.7 km/h 65 % 0.00 in /  0 mm
09:09 30.3 °F /  -0.9 °C 19.6 °F /  -6.9 °C 30.32 in /  1026.6 hPa Calm     64 % 0.00 in /  0 mm
09:14 30.7 °F /  -0.7 °C 19.2 °F /  -7.1 °C 30.32 in /  1026.6 hPa NW 1.1 mph /  1.8 km/h 3.5 mph /  5.6 km/h 62 % 0.00 in /  0 mm
09:19 31.0 °F /  -0.6 °C 18.7 °F /  -7.4 °C 30.32 in /  1026.6 hPa NW 2.2 mph /  3.5 km/h 3.5 mph /  5.6 km/h 60 % 0.00 in /  0 mm
09:24 31.2 °F /  -0.4 °C 18.9 °F /  -7.3 °C 30.32 in /  1026.6 hPa West 0.9 mph /  1.4 km/h 3.5 mph /  5.6 km/h 60 % 0.00 in /  0 mm
09:29 31.2 °F /  -0.4 °C 18.1 °F /  -7.7 °C 30.32 in /  1026.6 hPa West 2.1 mph /  3.4 km/h 3.5 mph /  5.6 km/h 58 % 0.00 in /  0 mm
09:34 31.3 °F /  -0.4 °C 18.2 °F /  -7.7 °C 30.32 in /  1026.6 hPa SSW 1.2 mph /  1.9 km/h 3.5 mph /  5.6 km/h 58 % 0.00 in /  0 mm
09:39 31.4 °F /  -0.3 °C 18.3 °F /  -7.6 °C 30.32 in /  1026.6 hPa SSW 0.1 mph /  0.2 km/h 1.2 mph /  1.9 km/h 58 % 0.00 in /  0 mm
09:44 31.3 °F /  -0.4 °C 17.8 °F /  -7.9 °C 30.32 in /  1026.6 hPa WSW 1.1 mph /  1.8 km/h 3.0 mph /  4.8 km/h 57 % 0.00 in /  0 mm
09:49 31.2 °F /  -0.4 °C 17.3 °F /  -8.2 °C 30.32 in /  1026.6 hPa WSW 0.7 mph /  1.1 km/h 1.2 mph /  1.9 km/h 56 % 0.00 in /  0 mm
09:54 31.2 °F /  -0.4 °C 17.7 °F /  -7.9 °C 30.32 in /  1026.6 hPa WSW 1.2 mph /  1.9 km/h 3.5 mph /  5.6 km/h 57 % 0.00 in /  0 mm
09:59 31.2 °F /  -0.4 °C 17.7 °F /  -7.9 °C 30.33 in /  1027 hPa WSW 1.0 mph /  1.6 km/h 4.0 mph /  6.4 km/h 57 % 0.00 in /  0 mm
10:04 31.1 °F /  -0.5 °C 16.8 °F /  -8.4 °C 30.33 in /  1027 hPa West 1.9 mph /  3.1 km/h 3.5 mph /  5.6 km/h 55 % 0.00 in /  0 mm
10:09 31.1 °F /  -0.5 °C 15.9 °F /  -8.9 °C 30.32 in /  1026.6 hPa Calm   2.3 mph /  3.7 km/h 53 % 0.00 in /  0 mm
10:14 31.0 °F /  -0.6 °C 16.3 °F /  -8.7 °C 30.32 in /  1026.6 hPa Calm     54 % 0.00 in /  0 mm
10:19 31.0 °F /  -0.6 °C 15.8 °F /  -9 °C 30.33 in /  1027 hPa Calm     53 % 0.00 in /  0 mm
10:24 31.0 °F /  -0.6 °C 16.7 °F /  -8.5 °C 30.33 in /  1027 hPa West 0.1 mph /  0.2 km/h   55 % 0.00 in /  0 mm
10:29 31.0 °F /  -0.6 °C 16.7 °F /  -8.5 °C 30.33 in /  1027 hPa West 0.7 mph /  1.1 km/h 2.3 mph /  3.7 km/h 55 % 0.00 in /  0 mm
10:35 31.0 °F /  -0.6 °C 17.1 °F /  -8.3 °C 30.33 in /  1027 hPa Calm   1.2 mph /  1.9 km/h 56 % 0.00 in /  0 mm
10:40 31.0 °F /  -0.6 °C 17.1 °F /  -8.3 °C 30.33 in /  1027 hPa Calm     56 % 0.00 in /  0 mm
10:45 31.4 °F /  -0.3 °C 17.5 °F /  -8.1 °C 30.33 in /  1027 hPa West 1.0 mph /  1.6 km/h 3.5 mph /  5.6 km/h 56 % 0.00 in /  0 mm
10:50 31.7 °F /  -0.2 °C 17.4 °F /  -8.1 °C 30.33 in /  1027 hPa West 3.0 mph /  4.8 km/h 5.0 mph /  8 km/h 55 % 0.00 in /  0 mm
10:55 32.3 °F /  0.2 °C 17.5 °F /  -8.1 °C 30.33 in /  1027 hPa WSW 3.1 mph /  5 km/h 5.0 mph /  8 km/h 54 % 0.00 in /  0 mm
11:00 32.6 °F /  0.3 °C 17.3 °F /  -8.2 °C 30.33 in /  1027 hPa WNW 0.4 mph /  0.6 km/h 1.2 mph /  1.9 km/h 53 % 0.00 in /  0 mm
11:05 33.2 °F /  0.7 °C 18.8 °F /  -7.3 °C 30.33 in /  1027 hPa Calm     55 % 0.00 in /  0 mm
11:10 33.7 °F /  0.9 °C 18.4 °F /  -7.6 °C 30.33 in /  1027 hPa SSW 2.2 mph /  3.5 km/h 6.9 mph /  11.1 km/h 53 % 0.00 in /  0 mm
11:15 34.0 °F /  1.1 °C 18.2 °F /  -7.7 °C 30.33 in /  1027 hPa SSW 1.8 mph /  2.9 km/h 6.9 mph /  11.1 km/h 52 % 0.00 in /  0 mm
11:20 34.3 °F /  1.3 °C 18.0 °F /  -7.8 °C 30.33 in /  1027 hPa SE 2.6 mph /  4.2 km/h 8.1 mph /  13 km/h 51 % 0.00 in /  0 mm
11:25 34.7 °F /  1.5 °C 18.9 °F /  -7.3 °C 30.33 in /  1027 hPa South 2.9 mph /  4.7 km/h 3.5 mph /  5.6 km/h 52 % 0.00 in /  0 mm
11:30 35.2 °F /  1.8 °C 18.4 °F /  -7.6 °C 30.32 in /  1026.6 hPa WSW 1.1 mph /  1.8 km/h 4.6 mph /  7.4 km/h 50 % 0.00 in /  0 mm
11:35 35.5 °F /  1.9 °C 18.2 °F /  -7.7 °C 30.32 in /  1026.6 hPa South 2.3 mph /  3.7 km/h 4.6 mph /  7.4 km/h 49 % 0.00 in /  0 mm
11:40 35.8 °F /  2.1 °C 19.0 °F /  -7.2 °C 30.32 in /  1026.6 hPa Calm   3.5 mph /  5.6 km/h 50 % 0.00 in /  0 mm
11:45 36.0 °F /  2.2 °C 18.2 °F /  -7.7 °C 30.32 in /  1026.6 hPa WSW 6.6 mph /  10.6 km/h 10.4 mph /  16.7 km/h 48 % 0.00 in /  0 mm
11:50 36.0 °F /  2.2 °C 18.7 °F /  -7.4 °C 30.32 in /  1026.6 hPa WSW 2.8 mph /  4.5 km/h 4.6 mph /  7.4 km/h 49 % 0.00 in /  0 mm
11:55 36.0 °F /  2.2 °C 18.2 °F /  -7.7 °C 30.32 in /  1026.6 hPa SW 2.6 mph /  4.2 km/h 5.8 mph /  9.3 km/h 48 % 0.00 in /  0 mm
12:01 36.0 °F /  2.2 °C 19.1 °F /  -7.2 °C 30.31 in /  1026.3 hPa SSW 5.6 mph /  9 km/h 8.0 mph /  12.9 km/h 50 % 0.00 in /  0 mm
12:06 35.8 °F /  2.1 °C 18.0 °F /  -7.8 °C 30.31 in /  1026.3 hPa SSW 3.7 mph /  6 km/h 6.9 mph /  11.1 km/h 48 % 0.00 in /  0 mm
12:11 35.6 °F /  2 °C 18.3 °F /  -7.6 °C 30.31 in /  1026.3 hPa South 4.5 mph /  7.2 km/h 8.1 mph /  13 km/h 49 % 0.00 in /  0 mm
12:16 35.5 °F /  1.9 °C 18.7 °F /  -7.4 °C 30.30 in /  1026 hPa WSW 6.0 mph /  9.7 km/h 9.2 mph /  14.8 km/h 50 % 0.00 in /  0 mm
12:21 35.6 °F /  2 °C 19.2 °F /  -7.1 °C 30.30 in /  1026 hPa SSE 4.9 mph /  7.9 km/h 8.1 mph /  13 km/h 51 % 0.00 in /  0 mm
12:26 35.5 °F /  1.9 °C 19.1 °F /  -7.2 °C 30.29 in /  1025.6 hPa South 5.0 mph /  8 km/h 8.1 mph /  13 km/h 51 % 0.00 in /  0 mm
12:31 35.5 °F /  1.9 °C 19.1 °F /  -7.2 °C 30.29 in /  1025.6 hPa SW 7.3 mph /  11.7 km/h 11.5 mph /  18.5 km/h 51 % 0.00 in /  0 mm
12:36 35.5 °F /  1.9 °C 20.0 °F /  -6.7 °C 30.29 in /  1025.6 hPa SW 2.1 mph /  3.4 km/h 4.6 mph /  7.4 km/h 53 % 0.00 in /  0 mm
12:41 35.6 °F /  2 °C 20.6 °F /  -6.3 °C 30.28 in /  1025.3 hPa South 4.8 mph /  7.7 km/h 8.1 mph /  13 km/h 54 % 0.00 in /  0 mm
12:46 35.7 °F /  2.1 °C 21.1 °F /  -6.1 °C 30.28 in /  1025.3 hPa SSW 4.5 mph /  7.2 km/h 6.9 mph /  11.1 km/h 55 % 0.00 in /  0 mm
12:51 35.8 °F /  2.1 °C 20.3 °F /  -6.5 °C 30.27 in /  1024.9 hPa SW 3.6 mph /  5.8 km/h 6.0 mph /  9.7 km/h 53 % 0.00 in /  0 mm
12:56 35.7 °F /  2.1 °C 20.7 °F /  -6.3 °C 30.27 in /  1024.9 hPa SSE 3.6 mph /  5.8 km/h 5.8 mph /  9.3 km/h 54 % 0.00 in /  0 mm
13:01 35.7 °F /  2.1 °C 20.7 °F /  -6.3 °C 30.27 in /  1024.9 hPa SSW 4.0 mph /  6.4 km/h 5.8 mph /  9.3 km/h 54 % 0.00 in /  0 mm
13:06 35.7 °F /  2.1 °C 20.7 °F /  -6.3 °C 30.26 in /  1024.6 hPa SSW 3.2 mph /  5.1 km/h 7.0 mph /  11.3 km/h 54 % 0.00 in /  0 mm
13:11 35.6 °F /  2 °C 20.6 °F /  -6.3 °C 30.26 in /  1024.6 hPa SSW 2.1 mph /  3.4 km/h 4.6 mph /  7.4 km/h 54 % 0.00 in /  0 mm
13:16 35.5 °F /  1.9 °C 20.5 °F /  -6.4 °C 30.26 in /  1024.6 hPa South 3.4 mph /  5.5 km/h 8.0 mph /  12.9 km/h 54 % 0.00 in /  0 mm
13:21 35.5 °F /  1.9 °C 21.3 °F /  -5.9 °C 30.26 in /  1024.6 hPa SSW 0.5 mph /  0.8 km/h 3.5 mph /  5.6 km/h 56 % 0.00 in /  0 mm
13:26 35.5 °F /  1.9 °C 21.3 °F /  -5.9 °C 30.26 in /  1024.6 hPa SSW 4.6 mph /  7.4 km/h 7.0 mph /  11.3 km/h 56 % 0.00 in /  0 mm
13:31 35.4 °F /  1.9 °C 21.2 °F /  -6 °C 30.26 in /  1024.6 hPa SSW 3.0 mph /  4.8 km/h 5.0 mph /  8 km/h 56 % 0.00 in /  0 mm
13:36 35.4 °F /  1.9 °C 21.7 °F /  -5.7 °C 30.26 in /  1024.6 hPa SW 4.0 mph /  6.4 km/h 10.4 mph /  16.7 km/h 57 % 0.00 in /  0 mm
13:42 35.5 °F /  1.9 °C 21.3 °F /  -5.9 °C 30.26 in /  1024.6 hPa SSW 5.1 mph /  8.2 km/h 6.0 mph /  9.7 km/h 56 % 0.00 in /  0 mm
13:47 35.4 °F /  1.9 °C 21.2 °F /  -6 °C 30.26 in /  1024.6 hPa SSW 1.8 mph /  2.9 km/h 4.6 mph /  7.4 km/h 56 % 0.00 in /  0 mm
13:52 35.5 °F /  1.9 °C 21.8 °F /  -5.7 °C 30.26 in /  1024.6 hPa SSW 2.8 mph /  4.5 km/h 8.1 mph /  13 km/h 57 % 0.00 in /  0 mm
13:57 35.5 °F /  1.9 °C 21.3 °F /  -5.9 °C 30.25 in /  1024.3 hPa South 3.7 mph /  6 km/h 5.8 mph /  9.3 km/h 56 % 0.00 in /  0 mm
14:02 35.2 °F /  1.8 °C 21.5 °F /  -5.8 °C 30.25 in /  1024.3 hPa South 1.8 mph /  2.9 km/h 4.6 mph /  7.4 km/h 57 % 0.00 in /  0 mm
14:07 35.3 °F /  1.8 °C 22.0 °F /  -5.6 °C 30.25 in /  1024.3 hPa SSW 3.7 mph /  6 km/h 5.8 mph /  9.3 km/h 58 % 0.00 in /  0 mm
14:12 35.4 °F /  1.9 °C 22.1 °F /  -5.5 °C 30.25 in /  1024.3 hPa West 4.9 mph /  7.9 km/h 9.2 mph /  14.8 km/h 58 % 0.00 in /  0 mm
14:17 35.5 °F /  1.9 °C 22.2 °F /  -5.4 °C 30.25 in /  1024.3 hPa SSW 1.8 mph /  2.9 km/h 4.0 mph /  6.4 km/h 58 % 0.00 in /  0 mm
14:22 35.5 °F /  1.9 °C 21.8 °F /  -5.7 °C 30.25 in /  1024.3 hPa SSW 2.2 mph /  3.5 km/h 4.6 mph /  7.4 km/h 57 % 0.00 in /  0 mm
14:27 35.5 °F /  1.9 °C 22.2 °F /  -5.4 °C 30.25 in /  1024.3 hPa South 1.7 mph /  2.7 km/h 3.5 mph /  5.6 km/h 58 % 0.00 in /  0 mm
14:32 35.5 °F /  1.9 °C 22.2 °F /  -5.4 °C 30.25 in /  1024.3 hPa South 3.1 mph /  5 km/h 5.0 mph /  8 km/h 58 % 0.00 in /  0 mm
14:37 35.4 °F /  1.9 °C 22.1 °F /  -5.5 °C 30.24 in /  1023.9 hPa SSW 2.8 mph /  4.5 km/h 5.8 mph /  9.3 km/h 58 % 0.00 in /  0 mm
14:42 35.3 °F /  1.8 °C 22.0 °F /  -5.6 °C 30.24 in /  1023.9 hPa SSW 5.6 mph /  9 km/h 9.2 mph /  14.8 km/h 58 % 0.00 in /  0 mm
14:47 35.2 °F /  1.8 °C 22.3 °F /  -5.4 °C 30.24 in /  1023.9 hPa South 0.3 mph /  0.5 km/h 4.6 mph /  7.4 km/h 59 % 0.00 in /  0 mm
14:52 35.1 °F /  1.7 °C 22.2 °F /  -5.4 °C 30.24 in /  1023.9 hPa SSE 3.2 mph /  5.1 km/h 5.8 mph /  9.3 km/h 59 % 0.00 in /  0 mm
14:57 35.0 °F /  1.7 °C 22.9 °F /  -5.1 °C 30.24 in /  1023.9 hPa SSW 3.7 mph /  6 km/h 6.0 mph /  9.7 km/h 61 % 0.00 in /  0 mm
15:02 34.8 °F /  1.6 °C 22.7 °F /  -5.2 °C 30.24 in /  1023.9 hPa SW 4.6 mph /  7.4 km/h 5.8 mph /  9.3 km/h 61 % 0.00 in /  0 mm
15:08 34.7 °F /  1.5 °C 22.6 °F /  -5.2 °C 30.24 in /  1023.9 hPa South 3.9 mph /  6.3 km/h 5.0 mph /  8 km/h 61 % 0.00 in /  0 mm
15:13 34.4 °F /  1.3 °C 22.7 °F /  -5.2 °C 30.24 in /  1023.9 hPa SSW 1.8 mph /  2.9 km/h 5.8 mph /  9.3 km/h 62 % 0.00 in /  0 mm
15:18 34.3 °F /  1.3 °C 22.6 °F /  -5.2 °C 30.25 in /  1024.3 hPa SSW 2.6 mph /  4.2 km/h 6.0 mph /  9.7 km/h 62 % 0.00 in /  0 mm
15:23 34.1 °F /  1.2 °C 22.8 °F /  -5.1 °C 30.25 in /  1024.3 hPa South 2.0 mph /  3.2 km/h 4.6 mph /  7.4 km/h 63 % 0.00 in /  0 mm
15:28 33.9 °F /  1.1 °C 22.6 °F /  -5.2 °C 30.25 in /  1024.3 hPa South 5.3 mph /  8.5 km/h 10.4 mph /  16.7 km/h 63 % 0.00 in /  0 mm
15:33 33.7 °F /  0.9 °C 22.8 °F /  -5.1 °C 30.25 in /  1024.3 hPa SSW 1.5 mph /  2.4 km/h 5.8 mph /  9.3 km/h 64 % 0.00 in /  0 mm
15:38 33.7 °F /  0.9 °C 22.8 °F /  -5.1 °C 30.25 in /  1024.3 hPa SSW 4.6 mph /  7.4 km/h 9.2 mph /  14.8 km/h 64 % 0.00 in /  0 mm
15:43 33.5 °F /  0.8 °C 23.0 °F /  -5 °C 30.24 in /  1023.9 hPa SSW 1.6 mph /  2.6 km/h 5.8 mph /  9.3 km/h 65 % 0.00 in /  0 mm
15:48 33.4 °F /  0.8 °C 23.3 °F /  -4.8 °C 30.24 in /  1023.9 hPa SW 4.2 mph /  6.8 km/h 7.0 mph /  11.3 km/h 66 % 0.00 in /  0 mm
15:53 33.3 °F /  0.7 °C 23.2 °F /  -4.9 °C 30.25 in /  1024.3 hPa West 4.2 mph /  6.8 km/h 8.0 mph /  12.9 km/h 66 % 0.00 in /  0 mm
15:57 33.3 °F /  0.7 °C 23.2 °F /  -4.9 °C 30.25 in /  1024.3 hPa SW 4.1 mph /  6.6 km/h 8.1 mph /  13 km/h 66 % 0.00 in /  0 mm
16:02 33.2 °F /  0.7 °C 23.4 °F /  -4.8 °C 30.25 in /  1024.3 hPa South 2.2 mph /  3.5 km/h 4.0 mph /  6.4 km/h 67 % 0.00 in /  0 mm
16:08 33.2 °F /  0.7 °C 23.4 °F /  -4.8 °C 30.24 in /  1023.9 hPa South 4.2 mph /  6.8 km/h 8.1 mph /  13 km/h 67 % 0.00 in /  0 mm
16:13 33.1 °F /  0.6 °C 23.3 °F /  -4.8 °C 30.24 in /  1023.9 hPa SSW 1.0 mph /  1.6 km/h 4.6 mph /  7.4 km/h 67 % 0.00 in /  0 mm
16:18 33.2 °F /  0.7 °C 23.8 °F /  -4.6 °C 30.24 in /  1023.9 hPa South 3.3 mph /  5.3 km/h 6.0 mph /  9.7 km/h 68 % 0.00 in /  0 mm
16:23 33.2 °F /  0.7 °C 23.8 °F /  -4.6 °C 30.24 in /  1023.9 hPa SSW 4.4 mph /  7.1 km/h 7.0 mph /  11.3 km/h 68 % 0.00 in /  0 mm
16:28 33.2 °F /  0.7 °C 23.8 °F /  -4.6 °C 30.24 in /  1023.9 hPa SSW 4.3 mph /  6.9 km/h 7.0 mph /  11.3 km/h 68 % 0.00 in /  0 mm
16:33 33.1 °F /  0.6 °C 23.7 °F /  -4.6 °C 30.23 in /  1023.6 hPa SSW 2.7 mph /  4.3 km/h 5.8 mph /  9.3 km/h 68 % 0.00 in /  0 mm
16:38 33.1 °F /  0.6 °C 23.7 °F /  -4.6 °C 30.23 in /  1023.6 hPa SSE 1.9 mph /  3.1 km/h 4.6 mph /  7.4 km/h 68 % 0.00 in /  0 mm
16:43 33.1 °F /  0.6 °C 23.7 °F /  -4.6 °C 30.23 in /  1023.6 hPa SSE 2.2 mph /  3.5 km/h 5.8 mph /  9.3 km/h 68 % 0.00 in /  0 mm
16:48 33.1 °F /  0.6 °C 23.7 °F /  -4.6 °C 30.23 in /  1023.6 hPa South 3.9 mph /  6.3 km/h 7.0 mph /  11.3 km/h 68 % 0.00 in /  0 mm
16:53 33.0 °F /  0.6 °C 23.6 °F /  -4.7 °C 30.23 in /  1023.6 hPa South 1.0 mph /  1.6 km/h 4.0 mph /  6.4 km/h 68 % 0.00 in /  0 mm
16:58 33.0 °F /  0.6 °C 23.6 °F /  -4.7 °C 30.23 in /  1023.6 hPa South 3.1 mph /  5 km/h 4.6 mph /  7.4 km/h 68 % 0.00 in /  0 mm
17:03 33.0 °F /  0.6 °C 23.6 °F /  -4.7 °C 30.23 in /  1023.6 hPa SSW 2.2 mph /  3.5 km/h 11.5 mph /  18.5 km/h 68 % 0.00 in /  0 mm
17:08 32.9 °F /  0.5 °C 23.5 °F /  -4.7 °C 30.23 in /  1023.6 hPa SSW 1.9 mph /  3.1 km/h 2.0 mph /  3.2 km/h 68 % 0.00 in /  0 mm
17:13 32.9 °F /  0.5 °C 23.5 °F /  -4.7 °C 30.23 in /  1023.6 hPa Calm   3.5 mph /  5.6 km/h 68 % 0.00 in /  0 mm
17:18 32.9 °F /  0.5 °C 23.5 °F /  -4.7 °C 30.23 in /  1023.6 hPa SW 4.9 mph /  7.9 km/h 9.2 mph /  14.8 km/h 68 % 0.00 in /  0 mm
17:23 32.9 °F /  0.5 °C 23.8 °F /  -4.6 °C 30.23 in /  1023.6 hPa SSW 2.0 mph /  3.2 km/h 6.9 mph /  11.1 km/h 69 % 0.00 in /  0 mm
17:29 32.9 °F /  0.5 °C 23.8 °F /  -4.6 °C 30.22 in /  1023.2 hPa South 1.0 mph /  1.6 km/h 4.6 mph /  7.4 km/h 69 % 0.00 in /  0 mm
17:34 32.9 °F /  0.5 °C 23.8 °F /  -4.6 °C 30.23 in /  1023.6 hPa South 2.1 mph /  3.4 km/h 4.6 mph /  7.4 km/h 69 % 0.00 in /  0 mm
17:39 32.9 °F /  0.5 °C 24.2 °F /  -4.3 °C 30.22 in /  1023.2 hPa SSW 0.3 mph /  0.5 km/h 2.3 mph /  3.7 km/h 70 % 0.00 in /  0 mm
17:44 32.9 °F /  0.5 °C 24.2 °F /  -4.3 °C 30.22 in /  1023.2 hPa SSW 2.0 mph /  3.2 km/h 3.5 mph /  5.6 km/h 70 % 0.00 in /  0 mm
17:49 32.9 °F /  0.5 °C 24.2 °F /  -4.3 °C 30.22 in /  1023.2 hPa SSE 0.5 mph /  0.8 km/h 2.3 mph /  3.7 km/h 70 % 0.00 in /  0 mm
17:54 32.9 °F /  0.5 °C 24.5 °F /  -4.2 °C 30.21 in /  1022.9 hPa South 2.6 mph /  4.2 km/h 4.6 mph /  7.4 km/h 71 % 0.00 in /  0 mm
17:59 33.0 °F /  0.6 °C 24.6 °F /  -4.1 °C 30.21 in /  1022.9 hPa SSE 1.7 mph /  2.7 km/h 3.5 mph /  5.6 km/h 71 % 0.00 in /  0 mm
18:04 33.0 °F /  0.6 °C 24.6 °F /  -4.1 °C 30.21 in /  1022.9 hPa SE 1.9 mph /  3.1 km/h 6.0 mph /  9.7 km/h 71 % 0.00 in /  0 mm
18:09 33.0 °F /  0.6 °C 24.6 °F /  -4.1 °C 30.22 in /  1023.2 hPa SSE 0.5 mph /  0.8 km/h 2.3 mph /  3.7 km/h 71 % 0.00 in /  0 mm
18:14 33.1 °F /  0.6 °C 25.1 °F /  -3.8 °C 30.21 in /  1022.9 hPa Calm     72 % 0.00 in /  0 mm
18:19 33.1 °F /  0.6 °C 25.1 °F /  -3.8 °C 30.22 in /  1023.2 hPa South 0.1 mph /  0.2 km/h 1.2 mph /  1.9 km/h 72 % 0.00 in /  0 mm
18:24 33.1 °F /  0.6 °C 25.1 °F /  -3.8 °C 30.21 in /  1022.9 hPa SSW 0.4 mph /  0.6 km/h 2.0 mph /  3.2 km/h 72 % 0.00 in /  0 mm
18:29 33.2 °F /  0.7 °C 25.5 °F /  -3.6 °C 30.21 in /  1022.9 hPa South 0.2 mph /  0.3 km/h 1.2 mph /  1.9 km/h 73 % 0.00 in /  0 mm
18:34 33.2 °F /  0.7 °C 25.5 °F /  -3.6 °C 30.21 in /  1022.9 hPa South 2.4 mph /  3.9 km/h 4.6 mph /  7.4 km/h 73 % 0.00 in /  0 mm
18:39 33.2 °F /  0.7 °C 25.5 °F /  -3.6 °C 30.21 in /  1022.9 hPa South 0.9 mph /  1.4 km/h 3.5 mph /  5.6 km/h 73 % 0.00 in /  0 mm
18:44 33.3 °F /  0.7 °C 25.9 °F /  -3.4 °C 30.21 in /  1022.9 hPa SE 0.2 mph /  0.3 km/h 1.0 mph /  1.6 km/h 74 % 0.00 in /  0 mm
18:49 33.3 °F /  0.7 °C 25.9 °F /  -3.4 °C 30.21 in /  1022.9 hPa South 0.4 mph /  0.6 km/h 3.5 mph /  5.6 km/h 74 % 0.00 in /  0 mm
18:54 33.4 °F /  0.8 °C 26.0 °F /  -3.3 °C 30.21 in /  1022.9 hPa SE 0.9 mph /  1.4 km/h 3.0 mph /  4.8 km/h 74 % 0.00 in /  0 mm
19:00 33.4 °F /  0.8 °C 26.0 °F /  -3.3 °C 30.21 in /  1022.9 hPa South 1.3 mph /  2.1 km/h 3.5 mph /  5.6 km/h 74 % 0.00 in /  0 mm
19:05 33.5 °F /  0.8 °C 26.1 °F /  -3.3 °C 30.21 in /  1022.9 hPa South 1.0 mph /  1.6 km/h 2.3 mph /  3.7 km/h 74 % 0.00 in /  0 mm
19:10 33.5 °F /  0.8 °C 26.1 °F /  -3.3 °C 30.21 in /  1022.9 hPa South 0.5 mph /  0.8 km/h 3.5 mph /  5.6 km/h 74 % 0.00 in /  0 mm
19:15 33.5 °F /  0.8 °C 26.4 °F /  -3.1 °C 30.22 in /  1023.2 hPa SSW 2.3 mph /  3.7 km/h 5.0 mph /  8 km/h 75 % 0.00 in /  0 mm
19:20 33.5 °F /  0.8 °C 26.4 °F /  -3.1 °C 30.22 in /  1023.2 hPa SSW 1.4 mph /  2.3 km/h 3.5 mph /  5.6 km/h 75 % 0.00 in /  0 mm
19:25 33.5 °F /  0.8 °C 26.4 °F /  -3.1 °C 30.22 in /  1023.2 hPa SSW 0.5 mph /  0.8 km/h 1.2 mph /  1.9 km/h 75 % 0.00 in /  0 mm
19:30 33.5 °F /  0.8 °C 26.4 °F /  -3.1 °C 30.22 in /  1023.2 hPa SSW 0.7 mph /  1.1 km/h 3.5 mph /  5.6 km/h 75 % 0.00 in /  0 mm
19:35 33.6 °F /  0.9 °C 26.8 °F /  -2.9 °C 30.22 in /  1023.2 hPa South 1.7 mph /  2.7 km/h 3.5 mph /  5.6 km/h 76 % 0.00 in /  0 mm
19:40 33.6 °F /  0.9 °C 26.8 °F /  -2.9 °C 30.22 in /  1023.2 hPa SW 1.4 mph /  2.3 km/h 3.5 mph /  5.6 km/h 76 % 0.00 in /  0 mm
19:45 33.7 °F /  0.9 °C 27.3 °F /  -2.6 °C 30.21 in /  1022.9 hPa South 2.3 mph /  3.7 km/h 4.6 mph /  7.4 km/h 77 % 0.00 in /  0 mm
19:50 33.7 °F /  0.9 °C 27.3 °F /  -2.6 °C 30.21 in /  1022.9 hPa SSW 0.7 mph /  1.1 km/h 3.5 mph /  5.6 km/h 77 % 0.00 in /  0 mm
19:55 33.8 °F /  1 °C 27.4 °F /  -2.6 °C 30.22 in /  1023.2 hPa SSW 1.0 mph /  1.6 km/h 3.5 mph /  5.6 km/h 77 % 0.00 in /  0 mm
20:00 33.8 °F /  1 °C 27.4 °F /  -2.6 °C 30.22 in /  1023.2 hPa SSW 1.5 mph /  2.4 km/h 4.0 mph /  6.4 km/h 77 % 0.00 in /  0 mm
20:05 33.9 °F /  1.1 °C 27.8 °F /  -2.3 °C 30.21 in /  1022.9 hPa SSW 2.6 mph /  4.2 km/h 3.5 mph /  5.6 km/h 78 % 0.00 in /  0 mm
20:10 33.9 °F /  1.1 °C 27.8 °F /  -2.3 °C 30.20 in /  1022.6 hPa SSW 0.9 mph /  1.4 km/h 2.0 mph /  3.2 km/h 78 % 0.00 in /  0 mm
20:15 34.0 °F /  1.1 °C 27.9 °F /  -2.3 °C 30.20 in /  1022.6 hPa SSE 2.4 mph /  3.9 km/h 6.9 mph /  11.1 km/h 78 % 0.00 in /  0 mm
20:20 34.1 °F /  1.2 °C 28.3 °F /  -2.1 °C 30.20 in /  1022.6 hPa SSW 1.9 mph /  3.1 km/h 4.6 mph /  7.4 km/h 79 % 0.00 in /  0 mm
20:23 34.1 °F /  1.2 °C 28.3 °F /  -2.1 °C 30.20 in /  1022.6 hPa Calm   2.3 mph /  3.7 km/h 79 % 0.00 in /  0 mm
20:28 34.2 °F /  1.2 °C 28.4 °F /  -2 °C 30.20 in /  1022.6 hPa SSE 0.7 mph /  1.1 km/h 4.6 mph /  7.4 km/h 79 % 0.00 in /  0 mm
20:34 34.2 °F /  1.2 °C 28.4 °F /  -2 °C 30.20 in /  1022.6 hPa SE 0.9 mph /  1.4 km/h 1.2 mph /  1.9 km/h 79 % 0.00 in /  0 mm
20:39 34.3 °F /  1.3 °C 28.5 °F /  -1.9 °C 30.20 in /  1022.6 hPa SSE 0.1 mph /  0.2 km/h 1.2 mph /  1.9 km/h 79 % 0.00 in /  0 mm
20:44 34.3 °F /  1.3 °C 28.5 °F /  -1.9 °C 30.21 in /  1022.9 hPa South 0.6 mph /  1 km/h 3.5 mph /  5.6 km/h 79 % 0.00 in /  0 mm
20:49 34.3 °F /  1.3 °C 28.5 °F /  -1.9 °C 30.21 in /  1022.9 hPa South 0.2 mph /  0.3 km/h 1.2 mph /  1.9 km/h 79 % 0.00 in /  0 mm
20:54 34.3 °F /  1.3 °C 28.5 °F /  -1.9 °C 30.21 in /  1022.9 hPa SSW 1.3 mph /  2.1 km/h 4.0 mph /  6.4 km/h 79 % 0.00 in /  0 mm
20:59 34.4 °F /  1.3 °C 28.6 °F /  -1.9 °C 30.21 in /  1022.9 hPa SSW 0.3 mph /  0.5 km/h 2.3 mph /  3.7 km/h 79 % 0.00 in /  0 mm
21:04 34.4 °F /  1.3 °C 28.9 °F /  -1.7 °C 30.20 in /  1022.6 hPa SSW 1.9 mph /  3.1 km/h 3.5 mph /  5.6 km/h 80 % 0.00 in /  0 mm
21:09 34.5 °F /  1.4 °C 29.0 °F /  -1.7 °C 30.20 in /  1022.6 hPa Calm   1.2 mph /  1.9 km/h 80 % 0.00 in /  0 mm
21:14 34.5 °F /  1.4 °C 29.0 °F /  -1.7 °C 30.20 in /  1022.6 hPa SSW 1.2 mph /  1.9 km/h 2.3 mph /  3.7 km/h 80 % 0.00 in /  0 mm
21:19 34.6 °F /  1.4 °C 29.4 °F /  -1.4 °C 30.20 in /  1022.6 hPa Calm     81 % 0.00 in /  0 mm
21:24 34.6 °F /  1.4 °C 29.1 °F /  -1.6 °C 30.20 in /  1022.6 hPa Calm     80 % 0.00 in /  0 mm
21:29 34.7 °F /  1.5 °C 29.2 °F /  -1.6 °C 30.19 in /  1022.2 hPa Calm   1.2 mph /  1.9 km/h 80 % 0.00 in /  0 mm
21:34 34.7 °F /  1.5 °C 29.2 °F /  -1.6 °C 30.19 in /  1022.2 hPa Calm     80 % 0.00 in /  0 mm
21:39 34.8 °F /  1.6 °C 29.6 °F /  -1.3 °C 30.18 in /  1021.9 hPa SSE 0.3 mph /  0.5 km/h 2.3 mph /  3.7 km/h 81 % 0.00 in /  0 mm
21:44 34.8 °F /  1.6 °C 29.6 °F /  -1.3 °C 30.18 in /  1021.9 hPa SSE 1.0 mph /  1.6 km/h 2.0 mph /  3.2 km/h 81 % 0.00 in /  0 mm
21:49 34.9 °F /  1.6 °C 29.7 °F /  -1.3 °C 30.18 in /  1021.9 hPa Calm     81 % 0.00 in /  0 mm
21:54 34.9 °F /  1.6 °C 29.7 °F /  -1.3 °C 30.19 in /  1022.2 hPa SSW 1.2 mph /  1.9 km/h 2.0 mph /  3.2 km/h 81 % 0.00 in /  0 mm
22:00 35.0 °F /  1.7 °C 29.8 °F /  -1.2 °C 30.19 in /  1022.2 hPa South 0.6 mph /  1 km/h 4.6 mph /  7.4 km/h 81 % 0.00 in /  0 mm
22:05 35.0 °F /  1.7 °C 30.1 °F /  -1.1 °C 30.18 in /  1021.9 hPa South 0.7 mph /  1.1 km/h 4.0 mph /  6.4 km/h 82 % 0.00 in /  0 mm
22:10 35.0 °F /  1.7 °C 30.1 °F /  -1.1 °C 30.18 in /  1021.9 hPa Calm   2.3 mph /  3.7 km/h 82 % 0.00 in /  0 mm
22:15 35.1 °F /  1.7 °C 30.2 °F /  -1 °C 30.18 in /  1021.9 hPa South 1.1 mph /  1.8 km/h 3.5 mph /  5.6 km/h 82 % 0.00 in /  0 mm
22:20 35.1 °F /  1.7 °C 30.2 °F /  -1 °C 30.18 in /  1021.9 hPa SSW 1.6 mph /  2.6 km/h 3.5 mph /  5.6 km/h 82 % 0.00 in /  0 mm
22:25 35.2 °F /  1.8 °C 30.6 °F /  -0.8 °C 30.18 in /  1021.9 hPa SSW 2.3 mph /  3.7 km/h 3.5 mph /  5.6 km/h 83 % 0.00 in /  0 mm
22:30 35.3 °F /  1.8 °C 30.7 °F /  -0.7 °C 30.17 in /  1021.6 hPa South 2.1 mph /  3.4 km/h 5.8 mph /  9.3 km/h 83 % 0.00 in /  0 mm
22:35 35.5 °F /  1.9 °C 30.8 °F /  -0.7 °C 30.17 in /  1021.6 hPa South 1.1 mph /  1.8 km/h 2.3 mph /  3.7 km/h 83 % 0.00 in /  0 mm
22:40 35.5 °F /  1.9 °C 30.8 °F /  -0.7 °C 30.17 in /  1021.6 hPa South 1.5 mph /  2.4 km/h 4.6 mph /  7.4 km/h 83 % 0.00 in /  0 mm
22:45 35.5 °F /  1.9 °C 30.8 °F /  -0.7 °C 30.17 in /  1021.6 hPa SSW 0.8 mph /  1.3 km/h 4.0 mph /  6.4 km/h 83 % 0.00 in /  0 mm
22:50 35.6 °F /  2 °C 31.2 °F /  -0.4 °C 30.18 in /  1021.9 hPa South 2.1 mph /  3.4 km/h 3.5 mph /  5.6 km/h 84 % 0.00 in /  0 mm
22:55 35.6 °F /  2 °C 31.2 °F /  -0.4 °C 30.17 in /  1021.6 hPa South 2.3 mph /  3.7 km/h 3.5 mph /  5.6 km/h 84 % 0.00 in /  0 mm
23:00 35.7 °F /  2.1 °C 31.3 °F /  -0.4 °C 30.17 in /  1021.6 hPa SSW 1.5 mph /  2.4 km/h 3.5 mph /  5.6 km/h 84 % 0.00 in /  0 mm
23:05 35.7 °F /  2.1 °C 31.3 °F /  -0.4 °C 30.16 in /  1021.2 hPa SSW 1.2 mph /  1.9 km/h 2.3 mph /  3.7 km/h 84 % 0.00 in /  0 mm
23:10 35.7 °F /  2.1 °C 31.6 °F /  -0.2 °C 30.16 in /  1021.2 hPa South 2.0 mph /  3.2 km/h 4.0 mph /  6.4 km/h 85 % 0.00 in /  0 mm
23:15 35.8 °F /  2.1 °C 31.7 °F /  -0.2 °C 30.17 in /  1021.6 hPa South 0.9 mph /  1.4 km/h 3.5 mph /  5.6 km/h 85 % 0.00 in /  0 mm
23:20 35.8 °F /  2.1 °C 31.7 °F /  -0.2 °C 30.17 in /  1021.6 hPa South 2.0 mph /  3.2 km/h 5.0 mph /  8 km/h 85 % 0.00 in /  0 mm
23:25 35.9 °F /  2.2 °C 31.8 °F /  -0.1 °C 30.17 in /  1021.6 hPa SSW 1.0 mph /  1.6 km/h 4.0 mph /  6.4 km/h 85 % 0.00 in /  0 mm
23:30 35.9 °F /  2.2 °C 31.8 °F /  -0.1 °C 30.17 in /  1021.6 hPa Calm   1.0 mph /  1.6 km/h 85 % 0.00 in /  0 mm
23:36 35.9 °F /  2.2 °C 31.8 °F /  -0.1 °C 30.17 in /  1021.6 hPa Calm   5.0 mph /  8 km/h 85 % 0.00 in /  0 mm
23:40 35.9 °F /  2.2 °C 31.8 °F /  -0.1 °C 30.17 in /  1021.6 hPa SW 1.0 mph /  1.6 km/h 3.0 mph /  4.8 km/h 85 % 0.00 in /  0 mm
23:45 35.9 °F /  2.2 °C 31.8 °F /  -0.1 °C 30.17 in /  1021.6 hPa Calm   3.0 mph /  4.8 km/h 85 % 0.00 in /  0 mm
23:50 35.9 °F /  2.2 °C 31.8 °F /  -0.1 °C 30.16 in /  1021.2 hPa Calm     85 % 0.00 in /  0 mm
23:55 35.9 °F /  2.2 °C 31.8 °F /  -0.1 °C 30.16 in /  1021.2 hPa Calm     85 % 0.00 in /  0 mm
Crab Meadow Weather
Compliments of Weather Underground - 3 mb

Script developed by  Jim McMurry - jmcmurry@mwt.net Adapted for the template by  Wim van der Kuil - Leuven-Template.eu

Recycling: An estimated 80,000,000 Hershey's Kisses are wrapped each day, using enough aluminum foil to cover over 50 acres of space -- that's almost 40 football fields. All that foil is recyclable, but not many people realize it.